Zeit Nach Flug-Nr.
17:35 Palma De Mallorca MUC223
16:30 Oslo Gardermoen BJT5136
23:10 Munich MUC411
Alle Abflüge →
129
Pilots
123
Aircraft in fleet
783
Routes
7734
Total hours:
10222
Flights total
1099
Flights Charter
EDDM 300520Z 03012KT 350V060 9999 BKN026 M00/M07 Q1023 NOSIG

 LIVE MAP


DEPARTURES | ARRIVALS

Flug-Nr. ETD From To Status Gate (EDDM) In Progress
BJT5136 12:15 Berlin-Schönefeld Oslo Gardermoen BOOKED (MUC291) 0
MUC223 06:15 Munich Palma De Mallorca BOOKED (MUC240) 107
MUC411 22:00 Denver Munich CRUISE (MUC141) 108 ON TIME
MUC112 08:35 Munich Hannover LANDED (MUC271) 109

Worldwide Destinations

We fly both, continentale- and intercontinental destinations

Fleet

München Airways is provided with the most modern fleet

Real ATC

We fly on the Online-Network "IVAO". With standard phrases of the DFS we fly easily by the most different airspaces

The Social

In our Airline the fun as well as the respect is very valuable between the pilots

Real Flight Routes

All routes are checked by us and are updated daily. Summer as well as winter flight schedules bring you a lot of variety

Teamspeak 3

With the use of the Teamspeak 3 server the pilots can fly together or exchange themselves mutually

 LIVEBOARD

 FUTURE EVENTS

EventDate

*/